Terminal Aerodrome Forecast
Issued by NWS

Home | Current Version | Previous Version | Text Only | Print | Product List | Glossary On
Versions: 1 2 3 4 5 6 7 8 9 10 11 12
000
FTUS42 TJSJ 300500 RRA
TAFJPS
TAF
TJPS 300549Z 3006/3106 00000KT P6SM FEW025 FEW050
     FM301330 16010KT P6SM FEW030
     FM302330 07007KT P6SM FEW030 FEW060
      AMD NOT SKED 3012/3103=

USA.gov is the U.S. government's official web portal to all federal, state and local government web resources and services.